Time;durP1;ratioP1;P1;durP2;ratioP2;P2;SDS_P1;SDS_P2;PMS_P1;PMS_P2;Temp;Humidity;BMP_temperature;BMP_pressure;BME280_temperature;BME280_humidity;BME280_pressure;Samples;Min_cycle;Max_cycle;Signal;HPM_P1;HPM_P2
2022/04/02 00:01:42;;;;;;;7.82;5.40;;;;;;;;;;4990931;28;20050;-63
2022/04/02 00:04:09;;;;;;;7.55;5.22;;;;;;;;;;4990882;28;20473;-64
2022/04/02 00:06:36;;;;;;;9.25;5.47;;;;;;;;;;4990556;28;20046;-64
2022/04/02 00:09:03;;;;;;;8.40;5.00;;;;;;;;;;4990620;28;20061;-63
2022/04/02 00:11:31;;;;;;;7.28;4.63;;;;;;;;;;4990780;28;20050;-63
2022/04/02 00:13:58;;;;;;;7.00;4.03;;;;;;;;;;4990196;28;20051;-64
2022/04/02 00:16:27;;;;;;;6.90;4.07;;;;;;;;;;4990519;28;20298;-63
2022/04/02 00:18:54;;;;;;;6.40;3.35;;;;;;;;;;4990537;28;20054;-63
2022/04/02 00:21:21;;;;;;;5.93;3.92;;;;;;;;;;4990293;28;20057;-64
2022/04/02 00:23:48;;;;;;;7.13;3.38;;;;;;;;;;4990332;28;20047;-63
2022/04/02 00:26:17;;;;;;;6.13;3.72;;;;;;;;;;4990664;28;20488;-64
2022/04/02 00:28:45;;;;;;;5.05;3.22;;;;;;;;;;4990005;28;20146;-64
2022/04/02 00:31:13;;;;;;;5.05;3.05;;;;;;;;;;4990630;28;20054;-63
2022/04/02 00:33:43;;;;;;;5.28;3.17;;;;;;;;;;4990467;28;20042;-64
2022/04/02 00:36:10;;;;;;;5.30;3.00;;;;;;;;;;4989806;28;20455;-64
2022/04/02 00:38:39;;;;;;;5.82;3.42;;;;;;;;;;4989766;28;20072;-62
2022/04/02 00:41:06;;;;;;;4.95;3.15;;;;;;;;;;4990353;28;20056;-62
2022/04/02 00:43:35;;;;;;;5.45;3.53;;;;;;;;;;4991856;28;20054;-61
2022/04/02 00:46:06;;;;;;;6.20;3.28;;;;;;;;;;4991146;28;20062;-64
2022/04/02 00:48:33;;;;;;;5.53;3.47;;;;;;;;;;4988340;28;20047;-63
2022/04/02 00:51:03;;;;;;;5.82;3.70;;;;;;;;;;4992219;28;20415;-62
2022/04/02 00:53:32;;;;;;;5.22;3.25;;;;;;;;;;4993632;28;20050;-61
2022/04/02 00:55:59;;;;;;;6.85;3.97;;;;;;;;;;4995480;28;20057;-67
2022/04/02 00:58:27;;;;;;;6.53;4.10;;;;;;;;;;4995531;28;20078;-61
2022/04/02 01:00:54;;;;;;;6.45;4.35;;;;;;;;;;4995397;28;20416;-61
2022/04/02 01:03:21;;;;;;;7.13;4.20;;;;;;;;;;4995435;28;20053;-61
2022/04/02 01:05:49;;;;;;;7.00;4.03;;;;;;;;;;4995591;28;20074;-62
2022/04/02 01:08:18;;;;;;;7.68;4.60;;;;;;;;;;4994966;28;20050;-64
2022/04/02 01:10:45;;;;;;;7.18;4.05;;;;;;;;;;4995729;28;20058;-62
2022/04/02 01:13:13;;;;;;;7.63;4.40;;;;;;;;;;4995653;28;20165;-62
2022/04/02 01:15:40;;;;;;;8.13;4.55;;;;;;;;;;4995329;28;20510;-61
2022/04/02 01:18:07;;;;;;;8.38;5.15;;;;;;;;;;4995154;28;20061;-62
2022/04/02 01:20:34;;;;;;;8.40;5.22;;;;;;;;;;4994978;28;20526;-63
2022/04/02 01:23:08;;;;;;;9.23;5.90;;;;;;;;;;4996322;28;20042;-62
2022/04/02 01:25:36;;;;;;;10.40;5.93;;;;;;;;;;4996090;28;20416;-61
2022/04/02 01:28:05;;;;;;;11.88;7.45;;;;;;;;;;4995830;28;20046;-61
2022/04/02 01:30:34;;;;;;;14.82;8.90;;;;;;;;;;4995812;28;20050;-61
2022/04/02 01:33:02;;;;;;;15.50;9.65;;;;;;;;;;4995967;28;20054;-62
2022/04/02 01:35:31;;;;;;;20.42;11.07;;;;;;;;;;4995771;28;20416;-63
2022/04/02 01:37:57;;;;;;;19.80;12.18;;;;;;;;;;4995141;28;20046;-64
2022/04/02 01:40:26;;;;;;;20.73;12.43;;;;;;;;;;4994824;28;20056;-65
2022/04/02 01:42:53;;;;;;;24.02;14.55;;;;;;;;;;4995315;28;20054;-65
2022/04/02 01:45:20;;;;;;;22.63;13.23;;;;;;;;;;4995105;28;20057;-64
2022/04/02 01:47:50;;;;;;;21.90;12.63;;;;;;;;;;4995194;28;20050;-64
2022/04/02 01:50:17;;;;;;;21.45;12.50;;;;;;;;;;4995010;28;20507;-65
2022/04/02 01:52:44;;;;;;;21.85;13.10;;;;;;;;;;4995063;28;20138;-66
2022/04/02 01:55:11;;;;;;;20.25;12.18;;;;;;;;;;4994866;28;20047;-65
2022/04/02 01:57:40;;;;;;;21.80;12.73;;;;;;;;;;4994916;28;20053;-65
2022/04/02 02:00:08;;;;;;;20.00;11.63;;;;;;;;;;4994471;28;20053;-63
2022/04/02 02:02:35;;;;;;;21.50;13.30;;;;;;;;;;4994721;28;20050;-63
2022/04/02 02:05:02;;;;;;;20.52;12.88;;;;;;;;;;4993874;28;20531;-63
2022/04/02 02:07:29;;;;;;;19.85;11.98;;;;;;;;;;4994652;28;20058;-62
2022/04/02 02:09:58;;;;;;;20.52;12.90;;;;;;;;;;4994745;28;20050;-63
2022/04/02 02:12:25;;;;;;;22.95;13.43;;;;;;;;;;4994650;28;20108;-62
2022/04/02 02:14:54;;;;;;;20.58;12.38;;;;;;;;;;4994178;28;20101;-63
2022/04/02 02:17:21;;;;;;;22.08;13.40;;;;;;;;;;4994435;28;20055;-61
2022/04/02 02:19:48;;;;;;;20.08;12.10;;;;;;;;;;4994230;28;20042;-63
2022/04/02 02:22:15;;;;;;;20.08;12.68;;;;;;;;;;4995467;28;20133;-65
2022/04/02 02:24:42;;;;;;;22.40;12.90;;;;;;;;;;4994981;28;20054;-63
2022/04/02 02:27:09;;;;;;;19.83;12.18;;;;;;;;;;4994721;28;20057;-65
2022/04/02 02:29:36;;;;;;;20.35;12.93;;;;;;;;;;4994949;28;20129;-63
2022/04/02 02:32:05;;;;;;;21.50;12.73;;;;;;;;;;4994499;28;20124;-61
2022/04/02 02:37:17;;;;;;;23.08;13.27;;;;;;;;;;4993811;28;20054;-62
2022/04/02 02:39:44;;;;;;;22.05;13.00;;;;;;;;;;4993595;28;20050;-65
2022/04/02 02:42:11;;;;;;;21.05;12.68;;;;;;;;;;4993826;28;20054;-64
2022/04/02 02:44:37;;;;;;;22.65;12.90;;;;;;;;;;4994009;28;20141;-64
2022/04/02 02:47:07;;;;;;;19.90;12.60;;;;;;;;;;4993716;28;20359;-63
2022/04/02 02:49:34;;;;;;;23.23;12.73;;;;;;;;;;4993514;28;20086;-61
2022/04/02 02:52:01;;;;;;;23.98;14.05;;;;;;;;;;4993905;28;20054;-62
2022/04/02 02:54:28;;;;;;;19.65;11.85;;;;;;;;;;4993366;28;20134;-64
2022/04/02 02:56:54;;;;;;;21.60;13.43;;;;;;;;;;4993317;28;20051;-62
2022/04/02 02:59:21;;;;;;;18.67;11.65;;;;;;;;;;4993720;28;20065;-63
2022/04/02 03:01:48;;;;;;;20.25;12.55;;;;;;;;;;4993925;28;20509;-63
2022/04/02 03:04:18;;;;;;;20.10;12.15;;;;;;;;;;4993527;28;20050;-64
2022/04/02 03:06:45;;;;;;;22.40;12.13;;;;;;;;;;4993496;28;20054;-63
2022/04/02 03:09:12;;;;;;;21.90;12.35;;;;;;;;;;4992461;28;20136;-64
2022/04/02 03:11:39;;;;;;;20.80;12.80;;;;;;;;;;4992763;28;20057;-62
2022/04/02 03:14:06;;;;;;;18.30;11.30;;;;;;;;;;4992858;28;20051;-61
2022/04/02 03:16:33;;;;;;;20.63;12.43;;;;;;;;;;4992286;28;20046;-62
2022/04/02 03:19:02;;;;;;;19.00;11.63;;;;;;;;;;4993306;28;20050;-64
2022/04/02 03:21:30;;;;;;;21.75;12.05;;;;;;;;;;4993190;28;20057;-66
2022/04/02 03:23:57;;;;;;;20.48;11.90;;;;;;;;;;4993244;28;20046;-63
2022/04/02 03:26:26;;;;;;;18.88;11.45;;;;;;;;;;4992791;28;20047;-64
2022/04/02 03:28:53;;;;;;;17.98;11.40;;;;;;;;;;4993557;28;20061;-66
2022/04/02 03:31:22;;;;;;;18.75;10.85;;;;;;;;;;4993069;28;20050;-66
2022/04/02 03:33:49;;;;;;;17.23;11.40;;;;;;;;;;4993153;28;20054;-64
2022/04/02 03:36:16;;;;;;;19.65;10.98;;;;;;;;;;4992956;28;20483;-61
2022/04/02 03:38:44;;;;;;;17.52;10.57;;;;;;;;;;4992851;28;20050;-64
2022/04/02 03:41:12;;;;;;;16.00;10.73;;;;;;;;;;4993134;28;20116;-63
2022/04/02 03:43:39;;;;;;;16.58;10.98;;;;;;;;;;4992990;28;20050;-64
2022/04/02 03:48:52;;;;;;;21.17;9.60;;;;;;;;;;4992777;28;20573;-65
2022/04/02 03:51:19;;;;;;;18.20;11.35;;;;;;;;;;4992984;28;20107;-65
2022/04/02 03:53:47;;;;;;;18.15;10.40;;;;;;;;;;4992995;28;20047;-64
2022/04/02 03:56:14;;;;;;;17.77;10.38;;;;;;;;;;4992757;28;20518;-63
2022/04/02 03:58:41;;;;;;;16.58;10.68;;;;;;;;;;4992912;28;20061;-62
2022/04/02 04:01:08;;;;;;;18.13;9.93;;;;;;;;;;4992989;28;20058;-61
2022/04/02 04:03:35;;;;;;;19.98;11.15;;;;;;;;;;4993101;28;20053;-59
2022/04/02 04:06:02;;;;;;;17.38;10.13;;;;;;;;;;4992576;28;20175;-62
2022/04/02 04:08:29;;;;;;;21.08;10.45;;;;;;;;;;4993053;28;20108;-62
2022/04/02 04:10:57;;;;;;;20.90;10.25;;;;;;;;;;4992945;28;20046;-62
2022/04/02 04:13:24;;;;;;;20.30;9.95;;;;;;;;;;4992768;28;20050;-62
2022/04/02 04:15:51;;;;;;;16.67;10.27;;;;;;;;;;4992278;28;20050;-63
2022/04/02 04:18:18;;;;;;;16.75;9.75;;;;;;;;;;4992642;28;20054;-62
2022/04/02 04:20:45;;;;;;;18.73;10.40;;;;;;;;;;4992235;28;20050;-60
2022/04/02 04:23:12;;;;;;;18.88;10.48;;;;;;;;;;4992833;28;20051;-65
2022/04/02 04:25:39;;;;;;;22.15;10.88;;;;;;;;;;4992452;28;20046;-64
2022/04/02 04:28:08;;;;;;;16.42;9.70;;;;;;;;;;4993018;28;20054;-62
2022/04/02 04:30:35;;;;;;;20.77;11.43;;;;;;;;;;4996243;28;20054;-63
2022/04/02 04:33:02;;;;;;;21.75;10.40;;;;;;;;;;4996263;28;20057;-62
2022/04/02 04:35:30;;;;;;;18.45;11.35;;;;;;;;;;4996124;28;20066;-63
2022/04/02 04:37:56;;;;;;;17.30;10.55;;;;;;;;;;4996145;28;20050;-63
2022/04/02 04:40:23;;;;;;;19.58;11.80;;;;;;;;;;4996118;28;20046;-63
2022/04/02 04:42:50;;;;;;;18.55;10.65;;;;;;;;;;4996046;28;20050;-64
2022/04/02 04:45:19;;;;;;;20.33;10.63;;;;;;;;;;4995725;28;20052;-63
2022/04/02 04:47:47;;;;;;;15.02;9.40;;;;;;;;;;4996001;28;20050;-62
2022/04/02 04:50:14;;;;;;;18.52;9.93;;;;;;;;;;4995598;28;20578;-61
2022/04/02 04:52:41;;;;;;;20.40;11.18;;;;;;;;;;4996175;28;20066;-60
2022/04/02 04:55:09;;;;;;;20.33;11.07;;;;;;;;;;4996326;28;20500;-63
2022/04/02 04:57:36;;;;;;;19.35;11.57;;;;;;;;;;4995747;28;20473;-63
2022/04/02 05:00:04;;;;;;;20.13;11.32;;;;;;;;;;4995709;28;20502;-63
2022/04/02 05:02:32;;;;;;;17.27;10.40;;;;;;;;;;4995867;28;20057;-61
2022/04/02 05:04:59;;;;;;;17.63;10.30;;;;;;;;;;4995494;28;20068;-62
2022/04/02 05:07:26;;;;;;;20.02;10.93;;;;;;;;;;4995684;28;20058;-63
2022/04/02 05:09:54;;;;;;;20.02;10.75;;;;;;;;;;4995952;28;20541;-63
2022/04/02 05:12:21;;;;;;;18.85;11.10;;;;;;;;;;4995494;28;20050;-63
2022/04/02 05:14:49;;;;;;;21.63;11.05;;;;;;;;;;4995733;28;20057;-64
2022/04/02 05:17:17;;;;;;;20.33;11.18;;;;;;;;;;4995704;28;20051;-64
2022/04/02 05:19:45;;;;;;;23.05;12.38;;;;;;;;;;4995423;28;20042;-62
2022/04/02 05:22:12;;;;;;;20.00;10.43;;;;;;;;;;4995360;28;20056;-61
2022/04/02 05:24:39;;;;;;;20.13;11.63;;;;;;;;;;4995504;28;20060;-64
2022/04/02 05:27:06;;;;;;;18.48;11.15;;;;;;;;;;4995523;28;20050;-64
2022/04/02 05:29:34;;;;;;;18.65;10.93;;;;;;;;;;4995583;28;20101;-66
2022/04/02 05:32:01;;;;;;;24.55;11.48;;;;;;;;;;4995994;28;20046;-60
2022/04/02 05:34:28;;;;;;;22.20;11.45;;;;;;;;;;4996112;28;20120;-63
2022/04/02 05:36:56;;;;;;;22.15;11.88;;;;;;;;;;4995169;28;20042;-62
2022/04/02 05:39:23;;;;;;;28.13;11.23;;;;;;;;;;4994934;28;20050;-67
2022/04/02 05:41:51;;;;;;;21.33;11.75;;;;;;;;;;4995537;28;20046;-61
2022/04/02 05:44:18;;;;;;;22.13;11.57;;;;;;;;;;4995451;28;20054;-61
2022/04/02 05:46:45;;;;;;;24.40;12.60;;;;;;;;;;4994780;28;20414;-61
2022/04/02 05:49:12;;;;;;;23.98;12.15;;;;;;;;;;4995241;28;20050;-62
2022/04/02 05:51:39;;;;;;;22.38;12.40;;;;;;;;;;4995166;28;20059;-61
2022/04/02 05:54:08;;;;;;;23.33;11.63;;;;;;;;;;4995118;28;20051;-62
2022/04/02 05:56:35;;;;;;;28.02;12.55;;;;;;;;;;4994534;28;20050;-61
2022/04/02 05:59:05;;;;;;;25.77;11.45;;;;;;;;;;4995006;28;20552;-63
2022/04/02 06:01:32;;;;;;;22.10;11.98;;;;;;;;;;4994891;28;20062;-61
2022/04/02 06:03:59;;;;;;;23.75;11.77;;;;;;;;;;4994609;28;20137;-62
2022/04/02 06:06:26;;;;;;;20.90;11.63;;;;;;;;;;4994850;28;20054;-62
2022/04/02 06:08:53;;;;;;;27.58;12.52;;;;;;;;;;4994726;28;20407;-62
2022/04/02 06:11:21;;;;;;;19.98;11.25;;;;;;;;;;4994829;28;20062;-62
2022/04/02 06:13:48;;;;;;;22.80;13.20;;;;;;;;;;4994662;28;20050;-60
2022/04/02 06:16:16;;;;;;;26.50;12.98;;;;;;;;;;4994325;28;20049;-60
2022/04/02 06:18:44;;;;;;;20.35;11.40;;;;;;;;;;4994066;28;20054;-62
2022/04/02 06:21:11;;;;;;;21.98;11.57;;;;;;;;;;4994609;28;20611;-63
2022/04/02 06:23:38;;;;;;;22.25;11.43;;;;;;;;;;4994452;28;20050;-64
2022/04/02 06:26:05;;;;;;;25.85;12.88;;;;;;;;;;4994302;28;20053;-62
2022/04/02 06:28:34;;;;;;;21.52;11.40;;;;;;;;;;4994306;28;20514;-59
2022/04/02 06:31:00;;;;;;;29.20;13.90;;;;;;;;;;4994205;28;20122;-63
2022/04/02 06:33:27;;;;;;;23.70;12.40;;;;;;;;;;4994230;28;20061;-63
2022/04/02 06:35:54;;;;;;;23.00;12.38;;;;;;;;;;4994302;28;20046;-61
2022/04/02 06:38:21;;;;;;;27.15;13.43;;;;;;;;;;5002892;23;20045;-60
2022/04/02 06:40:49;;;;;;;24.05;12.65;;;;;;;;;;4994405;28;20058;-59
2022/04/02 06:43:16;;;;;;;26.85;12.63;;;;;;;;;;4994064;28;20050;-59
2022/04/02 06:45:44;;;;;;;25.58;13.90;;;;;;;;;;4994103;28;20050;-57
2022/04/02 06:48:13;;;;;;;26.45;13.05;;;;;;;;;;4994076;28;20058;-59
2022/04/02 06:50:40;;;;;;;22.83;12.35;;;;;;;;;;4994089;28;20054;-61
2022/04/02 06:53:07;;;;;;;26.88;13.60;;;;;;;;;;4994399;28;20050;-55
2022/04/02 06:55:35;;;;;;;24.23;14.07;;;;;;;;;;4993942;28;20050;-59
2022/04/02 06:58:03;;;;;;;22.92;12.85;;;;;;;;;;4993640;28;20123;-59
2022/04/02 07:00:30;;;;;;;26.58;12.88;;;;;;;;;;4993938;28;20506;-60
2022/04/02 07:02:58;;;;;;;25.38;12.65;;;;;;;;;;4994706;28;20097;-59
2022/04/02 07:05:25;;;;;;;22.98;13.15;;;;;;;;;;4993869;28;20054;-60
2022/04/02 07:07:52;;;;;;;24.65;12.55;;;;;;;;;;4993943;28;20049;-58
2022/04/02 07:10:20;;;;;;;24.15;12.25;;;;;;;;;;4993916;28;20082;-58
2022/04/02 07:12:47;;;;;;;27.05;13.35;;;;;;;;;;4994079;28;20053;-57
2022/04/02 07:15:14;;;;;;;26.30;14.88;;;;;;;;;;4993810;28;20051;-56
2022/04/02 07:17:41;;;;;;;28.83;15.25;;;;;;;;;;4994027;28;20492;-58
2022/04/02 07:20:12;;;;;;;22.45;12.25;;;;;;;;;;4994466;28;20094;-55
2022/04/02 07:22:40;;;;;;;23.77;12.13;;;;;;;;;;4994193;28;20160;-58
2022/04/02 07:25:08;;;;;;;28.90;16.63;;;;;;;;;;4994296;28;20051;-59
2022/04/02 07:27:38;;;;;;;27.20;13.70;;;;;;;;;;4994244;28;20053;-58
2022/04/02 07:30:06;;;;;;;30.77;15.32;;;;;;;;;;4993945;28;20550;-60
2022/04/02 07:32:33;;;;;;;22.55;12.20;;;;;;;;;;4994140;28;20054;-58
2022/04/02 07:35:01;;;;;;;24.58;12.73;;;;;;;;;;4994176;28;20054;-58
2022/04/02 07:37:40;;;;;;;24.80;12.40;;;;;;;;;;4993786;28;20411;-59
2022/04/02 07:40:13;;;;;;;25.70;12.07;;;;;;;;;;4993558;28;20054;-58
2022/04/02 07:42:48;;;;;;;24.40;12.57;;;;;;;;;;4994043;28;20054;-59
2022/04/02 07:45:21;;;;;;;23.90;12.15;;;;;;;;;;4994678;28;20372;-58
2022/04/02 07:47:55;;;;;;;22.33;11.80;;;;;;;;;;4993669;28;20061;-59
2022/04/02 07:50:25;;;;;;;23.55;12.20;;;;;;;;;;4993842;28;20050;-56
2022/04/02 07:52:55;;;;;;;22.08;12.45;;;;;;;;;;4993630;28;20065;-57
2022/04/02 07:55:23;;;;;;;21.23;11.40;;;;;;;;;;4994089;28;20056;-58
2022/04/02 07:57:52;;;;;;;30.70;14.63;;;;;;;;;;4993588;28;20050;-56
2022/04/02 08:00:22;;;;;;;28.38;13.60;;;;;;;;;;4993743;28;20062;-57
2022/04/02 08:02:50;;;;;;;26.52;14.05;;;;;;;;;;4992748;28;20065;-60
2022/04/02 08:05:19;;;;;;;25.67;13.13;;;;;;;;;;4993352;28;20057;-59
2022/04/02 08:07:52;;;;;;;23.38;12.85;;;;;;;;;;4993757;28;20415;-60
2022/04/02 08:10:23;;;;;;;31.63;17.52;;;;;;;;;;4993423;28;20104;-59
2022/04/02 08:12:50;;;;;;;22.33;11.98;;;;;;;;;;4994631;28;20062;-58
2022/04/02 08:15:19;;;;;;;22.08;11.80;;;;;;;;;;4993367;28;20050;-59
2022/04/02 08:17:47;;;;;;;21.98;12.25;;;;;;;;;;4993129;28;20141;-56
2022/04/02 08:20:15;;;;;;;20.23;10.80;;;;;;;;;;4993771;28;20553;-58
2022/04/02 08:22:43;;;;;;;22.48;12.25;;;;;;;;;;4993595;28;20066;-60
2022/04/02 08:25:11;;;;;;;22.77;12.27;;;;;;;;;;4994024;28;20082;-57
2022/04/02 08:27:57;;;;;;;27.60;12.75;;;;;;;;;;4994115;28;20054;-58
2022/04/02 08:30:31;;;;;;;22.70;12.10;;;;;;;;;;4993367;28;20149;-58
2022/04/02 08:33:24;;;;;;;24.25;12.80;;;;;;;;;;4993094;28;20058;-57
2022/04/02 08:35:57;;;;;;;37.90;18.88;;;;;;;;;;4977349;28;20050;-57
2022/04/02 08:38:34;;;;;;;23.30;12.80;;;;;;;;;;4992705;28;20055;-59
2022/04/02 08:41:34;;;;;;;20.63;12.07;;;;;;;;;;4993141;28;20054;-56
2022/04/02 08:44:35;;;;;;;22.95;12.68;;;;;;;;;;4971645;28;20228;-58
2022/04/02 08:47:30;;;;;;;23.88;12.63;;;;;;;;;;4993138;28;20050;-59
2022/04/02 08:50:06;;;;;;;33.42;16.85;;;;;;;;;;4992946;28;20058;-57
2022/04/02 08:52:50;;;;;;;36.30;15.38;;;;;;;;;;4993340;28;20487;-57
2022/04/02 08:55:18;;;;;;;29.70;15.73;;;;;;;;;;4993181;28;20101;-56
2022/04/02 08:58:05;;;;;;;24.27;14.90;;;;;;;;;;4993084;28;20050;-59
2022/04/02 09:00:40;;;;;;;28.33;13.90;;;;;;;;;;4993470;28;20090;-54
2022/04/02 09:03:36;;;;;;;26.92;14.75;;;;;;;;;;4993300;28;20050;-57
2022/04/02 09:06:23;;;;;;;25.48;14.95;;;;;;;;;;4993345;28;20046;-60
2022/04/02 09:09:05;;;;;;;24.60;13.48;;;;;;;;;;4993052;28;20060;-58
2022/04/02 09:11:40;;;;;;;;;;;;;;;;;;4993787;28;20095;-55
2022/04/02 09:14:29;;;;;;;27.15;14.75;;;;;;;;;;4993272;28;20037;-58
2022/04/02 09:17:04;;;;;;;27.00;13.55;;;;;;;;;;4996391;28;20054;-59
2022/04/02 09:19:50;;;;;;;20.88;12.23;;;;;;;;;;4996288;28;20062;-60
2022/04/02 09:22:31;;;;;;;22.05;13.98;;;;;;;;;;4996525;28;20046;-61
2022/04/02 09:25:30;;;;;;;21.02;12.63;;;;;;;;;;4996375;28;20432;-59
2022/04/02 09:28:11;;;;;;;26.40;13.70;;;;;;;;;;4996212;28;20408;-57
2022/04/02 09:31:12;;;;;;;22.23;12.82;;;;;;;;;;4996503;28;20047;-54
2022/04/02 09:34:22;;;;;;;19.73;12.15;;;;;;;;;;4996793;28;20058;-59
2022/04/02 09:37:03;;;;;;;20.45;12.93;;;;;;;;;;4963970;28;20093;-59
2022/04/02 09:39:47;;;;;;;27.85;15.07;;;;;;;;;;4995809;28;20046;-60
2022/04/02 09:42:35;;;;;;;26.63;14.38;;;;;;;;;;4996377;28;20050;-59
2022/04/02 09:45:05;;;;;;;27.17;15.85;;;;;;;;;;4996086;28;20431;-59
2022/04/02 09:48:07;;;;;;;21.95;13.45;;;;;;;;;;4996434;28;20065;-60
2022/04/02 09:50:35;;;;;;;23.23;12.88;;;;;;;;;;4993202;28;20058;-58
2022/04/02 09:53:14;;;;;;;20.92;13.05;;;;;;;;;;4995719;28;20062;-59
2022/04/02 09:55:44;;;;;;;21.52;13.00;;;;;;;;;;4995993;28;20066;-58
2022/04/02 09:58:48;;;;;;;23.52;14.18;;;;;;;;;;4996127;28;20570;-60
2022/04/02 10:01:26;;;;;;;26.08;14.10;;;;;;;;;;4983417;28;20050;-58
2022/04/02 10:03:58;;;;;;;26.55;14.30;;;;;;;;;;4995982;28;20468;-61
2022/04/02 10:06:27;;;;;;;25.63;13.75;;;;;;;;;;4995775;28;20491;-59
2022/04/02 10:09:05;;;;;;;26.38;13.95;;;;;;;;;;4995465;28;20094;-59
2022/04/02 10:11:39;;;;;;;28.88;15.05;;;;;;;;;;4995588;28;20050;-59
2022/04/02 10:14:08;;;;;;;26.85;14.68;;;;;;;;;;4995972;28;20495;-62
2022/04/02 10:16:35;;;;;;;29.85;15.00;;;;;;;;;;4995669;28;20050;-59
2022/04/02 10:19:09;;;;;;;29.40;14.57;;;;;;;;;;4995322;28;20046;-60
2022/04/02 10:21:37;;;;;;;27.88;14.98;;;;;;;;;;4995117;28;20086;-60
2022/04/02 10:24:18;;;;;;;26.98;14.70;;;;;;;;;;4995570;28;20046;-56
2022/04/02 10:26:50;;;;;;;28.77;14.55;;;;;;;;;;4995208;28;20057;-60
2022/04/02 10:29:31;;;;;;;27.42;14.75;;;;;;;;;;4995665;28;20062;-56
2022/04/02 10:32:01;;;;;;;32.45;17.08;;;;;;;;;;4995597;28;20054;-58
2022/04/02 10:34:38;;;;;;;28.40;14.82;;;;;;;;;;4995504;28;20410;-59
2022/04/02 10:37:10;;;;;;;33.22;17.27;;;;;;;;;;4995566;28;20169;-59
2022/04/02 10:39:45;;;;;;;28.42;14.70;;;;;;;;;;4994879;28;20054;-56
2022/04/02 10:42:19;;;;;;;29.85;15.93;;;;;;;;;;4995219;28;20054;-59
2022/04/02 10:44:48;;;;;;;28.13;13.55;;;;;;;;;;4994843;28;20203;-60
2022/04/02 10:47:18;;;;;;;26.95;15.57;;;;;;;;;;4995378;28;20450;-60
2022/04/02 10:49:49;;;;;;;28.95;15.70;;;;;;;;;;4995089;28;20053;-59
2022/04/02 10:52:17;;;;;;;26.83;14.20;;;;;;;;;;4995518;28;20073;-59
2022/04/02 10:54:50;;;;;;;30.73;17.40;;;;;;;;;;4995654;28;20488;-68
2022/04/02 10:57:18;;;;;;;30.63;16.13;;;;;;;;;;4995503;28;20484;-60
2022/04/02 10:59:48;;;;;;;37.22;19.40;;;;;;;;;;4995233;28;20141;-64
2022/04/02 11:02:22;;;;;;;30.83;15.10;;;;;;;;;;4995256;28;20097;-65
2022/04/02 11:04:59;;;;;;;26.85;14.70;;;;;;;;;;4995651;28;20474;-66
2022/04/02 11:07:28;;;;;;;25.15;13.65;;;;;;;;;;4995299;28;20411;-63
2022/04/02 11:10:01;;;;;;;27.85;15.38;;;;;;;;;;4994922;28;20109;-66
2022/04/02 11:12:29;;;;;;;26.88;14.18;;;;;;;;;;4993416;28;20056;-60
2022/04/02 11:15:06;;;;;;;27.67;15.68;;;;;;;;;;4993160;28;20054;-61
2022/04/02 11:17:35;;;;;;;29.13;15.95;;;;;;;;;;4993296;28;20514;-59
2022/04/02 11:20:08;;;;;;;31.77;17.30;;;;;;;;;;4992862;28;20065;-61
2022/04/02 11:22:49;;;;;;;28.77;15.80;;;;;;;;;;4992604;28;20551;-61
2022/04/02 11:25:22;;;;;;;28.55;15.32;;;;;;;;;;4992547;28;20057;-59
2022/04/02 11:27:51;;;;;;;26.85;15.23;;;;;;;;;;4993198;28;20108;-60
2022/04/02 11:30:19;;;;;;;25.55;13.88;;;;;;;;;;4992420;28;20046;-60
2022/04/02 11:32:48;;;;;;;28.60;15.23;;;;;;;;;;4992377;28;20077;-58
2022/04/02 11:35:17;;;;;;;29.17;15.30;;;;;;;;;;4992223;28;20058;-62
2022/04/02 11:38:17;;;;;;;31.23;17.05;;;;;;;;;;4991450;28;20057;-59
2022/04/02 11:40:51;;;;;;;29.85;16.48;;;;;;;;;;4992750;28;20389;-60
2022/04/02 11:43:19;;;;;;;37.53;18.67;;;;;;;;;;4992287;28;20058;-59
2022/04/02 11:45:47;;;;;;;39.17;19.40;;;;;;;;;;4992270;28;20051;-61
2022/04/02 11:48:18;;;;;;;40.22;20.50;;;;;;;;;;4992245;28;20407;-61
2022/04/02 11:50:46;;;;;;;;;;;;;;;;;;4992418;28;20051;-60
2022/04/02 11:53:14;;;;;;;33.58;18.70;;;;;;;;;;4992340;28;19928;-57
2022/04/02 11:55:42;;;;;;;33.38;16.83;;;;;;;;;;4992125;28;20054;-59
2022/04/02 11:58:12;;;;;;;35.10;18.60;;;;;;;;;;4992434;28;20053;-59
2022/04/02 12:00:40;;;;;;;33.15;19.10;;;;;;;;;;4992071;28;20518;-61
2022/04/02 12:03:21;;;;;;;27.55;16.05;;;;;;;;;;4992118;28;20061;-61
2022/04/02 12:05:49;;;;;;;33.75;17.45;;;;;;;;;;4991911;28;20047;-60
2022/04/02 12:08:28;;;;;;;29.38;16.63;;;;;;;;;;4992287;28;20420;-60
2022/04/02 12:10:55;;;;;;;33.63;16.30;;;;;;;;;;4991887;28;20054;-61
2022/04/02 12:13:24;;;;;;;24.52;13.98;;;;;;;;;;4992351;28;20088;-60
2022/04/02 12:16:04;;;;;;;23.42;14.25;;;;;;;;;;4992135;28;20054;-61
2022/04/02 12:18:33;;;;;;;25.30;13.85;;;;;;;;;;4992232;28;20089;-56
2022/04/02 12:21:05;;;;;;;26.88;14.93;;;;;;;;;;4992478;28;20483;-60
2022/04/02 12:23:33;;;;;;;29.45;14.20;;;;;;;;;;4992293;28;20059;-59
2022/04/02 12:26:03;;;;;;;26.38;14.82;;;;;;;;;;4992112;28;20480;-59
2022/04/02 12:28:33;;;;;;;24.33;13.98;;;;;;;;;;4992093;28;20054;-60
2022/04/02 12:31:05;;;;;;;25.77;14.25;;;;;;;;;;4992178;28;20054;-57
2022/04/02 12:33:33;;;;;;;24.75;14.25;;;;;;;;;;4992311;28;20050;-60
2022/04/02 12:36:05;;;;;;;24.85;13.95;;;;;;;;;;4992225;28;20145;-60
2022/04/02 12:38:33;;;;;;;25.67;13.65;;;;;;;;;;4992437;28;20120;-60
2022/04/02 12:41:01;;;;;;;23.92;14.73;;;;;;;;;;5011308;23;20122;-84
2022/04/02 12:43:31;;;;;;;24.30;14.68;;;;;;;;;;4998605;28;20038;-84
2022/04/02 12:46:00;;;;;;;27.20;16.03;;;;;;;;;;4999032;28;20050;-83
2022/04/02 12:48:40;;;;;;;25.13;15.23;;;;;;;;;;5001798;28;20284;-83
2022/04/02 12:51:07;;;;;;;27.00;15.73;;;;;;;;;;5002411;28;20046;-84
2022/04/02 12:53:35;;;;;;;32.17;16.95;;;;;;;;;;5001466;28;20111;-84
2022/04/02 12:56:05;;;;;;;31.17;17.38;;;;;;;;;;5001133;28;20053;-83
2022/04/02 12:58:38;;;;;;;29.27;16.60;;;;;;;;;;5000483;28;20054;-84
2022/04/02 13:01:16;;;;;;;32.45;16.70;;;;;;;;;;5001172;28;20288;-84
2022/04/02 13:03:45;;;;;;;31.25;16.80;;;;;;;;;;5000928;28;20158;-84
2022/04/02 13:06:20;;;;;;;30.08;16.27;;;;;;;;;;5000592;28;20043;-84
2022/04/02 13:08:56;;;;;;;28.45;16.30;;;;;;;;;;5001791;28;20050;-84
2022/04/02 13:11:41;;;;;;;30.73;16.13;;;;;;;;;;5001189;28;20145;-83
2022/04/02 13:14:15;;;;;;;31.25;16.00;;;;;;;;;;5001871;28;20042;-84
2022/04/02 13:16:42;;;;;;;26.55;15.15;;;;;;;;;;5001755;28;20425;-83
2022/04/02 13:22:02;;;;;;;;;;;;;;;;;;5000672;28;20061;-84
2022/04/02 13:24:33;;;;;;;29.63;17.13;;;;;;;;;;5001682;28;19927;-84
2022/04/02 13:27:24;;;;;;;32.67;16.27;;;;;;;;;;5002413;28;20073;-85
2022/04/02 13:30:04;;;;;;;29.23;16.63;;;;;;;;;;4968343;28;20630;-84
2022/04/02 13:32:58;;;;;;;29.92;17.55;;;;;;;;;;4999825;28;20051;-84
2022/04/02 13:35:35;;;;;;;30.60;15.93;;;;;;;;;;5001074;28;20050;-84
2022/04/02 13:38:18;;;;;;;31.45;16.35;;;;;;;;;;5000634;28;20054;-84
2022/04/02 13:40:48;;;;;;;28.67;16.00;;;;;;;;;;5001884;28;20046;-84
2022/04/02 13:43:26;;;;;;;35.17;17.17;;;;;;;;;;5002137;28;20046;-84
2022/04/02 13:45:57;;;;;;;28.40;16.02;;;;;;;;;;5001636;28;20046;-84
2022/04/02 13:48:27;;;;;;;30.30;15.90;;;;;;;;;;5002180;28;20074;-84
2022/04/02 13:51:01;;;;;;;32.83;17.15;;;;;;;;;;5002676;28;20050;-84
2022/04/02 13:53:34;;;;;;;28.48;16.88;;;;;;;;;;5003966;28;20442;-84
2022/04/02 13:56:09;;;;;;;30.38;15.63;;;;;;;;;;5005432;28;20552;-83
2022/04/02 13:58:41;;;;;;;29.40;16.30;;;;;;;;;;5001664;28;20052;-83
2022/04/02 14:01:14;;;;;;;30.13;16.52;;;;;;;;;;5000467;28;20149;-84
2022/04/02 14:03:45;;;;;;;32.50;16.85;;;;;;;;;;5002064;28;20081;-84
2022/04/02 14:06:14;;;;;;;;;;;;;;;;;;5001957;28;20072;-85
2022/04/02 14:08:47;;;;;;;28.00;15.23;;;;;;;;;;5001734;28;20029;-84
2022/04/02 14:11:18;;;;;;;43.70;20.58;;;;;;;;;;5000639;28;20069;-84
2022/04/02 14:14:00;;;;;;;34.38;18.42;;;;;;;;;;5001044;28;20047;-84
2022/04/02 14:16:31;;;;;;;33.70;16.05;;;;;;;;;;5000231;28;20046;-83
2022/04/02 14:19:03;;;;;;;28.33;16.20;;;;;;;;;;5012227;28;20049;-84
2022/04/02 14:21:31;;;;;;;28.60;14.95;;;;;;;;;;5010304;28;20050;-84
2022/04/02 14:24:07;;;;;;;31.98;16.23;;;;;;;;;;5009928;28;20046;-83
2022/04/02 14:27:09;;;;;;;29.45;15.93;;;;;;;;;;5010452;28;20054;-84
2022/04/02 14:30:00;;;;;;;26.58;15.88;;;;;;;;;;5006382;28;20073;-85
2022/04/02 14:33:02;;;;;;;34.63;17.15;;;;;;;;;;5000379;28;20500;-83
2022/04/02 14:35:47;;;;;;;;;;;;;;;;;;5000955;28;20050;-84
2022/04/02 14:38:49;;;;;;;31.50;15.40;;;;;;;;;;5000339;28;19980;-84
2022/04/02 14:41:36;;;;;;;28.63;15.80;;;;;;;;;;4989549;28;20077;-84
2022/04/02 14:44:44;;;;;;;30.48;15.25;;;;;;;;;;5008831;28;20077;-84
2022/04/02 14:47:33;;;;;;;30.58;14.43;;;;;;;;;;4961716;28;20055;-85
2022/04/02 14:50:28;;;;;;;33.50;17.92;;;;;;;;;;4980544;28;20059;-84
2022/04/02 14:53:42;;;;;;;35.35;18.85;;;;;;;;;;4980487;28;20051;-84
2022/04/02 14:56:41;;;;;;;33.00;15.55;;;;;;;;;;4944056;28;20115;-84